« Back
NWS Peachtree City, Ga » Text Product » ATL Terminal Aerodrome Forecast


Printer-friendly Version
Current Version              Previous Versions:   1  2  3  4  5  6  7  8  9  

Terminal Aerodrome Forecast

115
FTUS42 KFFC 080151 AAA
TAFATL
TAF AMD
KATL 080151Z 0802/0906 24005KT P6SM BKN250
     FM081600 27007KT P6SM SCT050
     FM090200 24004KT P6SM SCT250=

USA.gov is the U.S. government's official web portal to all federal, state and local government web resources and services.